Kezdőlap
METAR-TAF:

METAR-TAF

Repülőterek :

Springbok, Dél-afrikai Köztársaság

földrajzi szélesség: 29-40S, földrajzi hosszúság: 17-53E, magasság: 1006 m

Jelenlegi meteorológiai megfigyelések

A jelentés 23 órával és 59 perccel ezelõtt készült, 06:39 UTC
Északi szél 3 kt
Hőmérséklet 20°C
Páratartalom 19%
Légköri nyomás 1024 hPa
Látótávolság 10 km, vagy több
felhőtlen 1500 m magasságban, és nincs gomolyfelhõ

METAR: FASB 250639Z 36003KT CAVOK 20/M04 Q1024

Idő: 08:38 (06:38 UTC)


TAF: hiányzik

Meteorológiai megfigyelések és előrejelzések több, mint 4000 repülőtéren (METAR és TAF jelentéseket).

A térképen piros és sárga pontok jelzik az elérhető meteorológiai állomásokat.

Mozgassa az egeret a pont fölött, hogy megjelenjen az állomás neve.

Azután kattintson az időjárási megfigyelések és előrejelzések megtekintéséhez.

A térkép megváltoztatása: kattintson a fekete keresztel jelölt zöld gombra ráközelítéshez, a vonallal jelölt zöld gombra távolításhoz, vagy a zöld nyilakra a szomszédos térképek eléréséhez.


METAR-TAF: